Time;durP1;ratioP1;P1;durP2;ratioP2;P2;SDS_P1;SDS_P2;PMS_P1;PMS_P2;Temp;Humidity;BMP_temperature;BMP_pressure;BME280_temperature;BME280_humidity;BME280_pressure;Samples;Min_cycle;Max_cycle;Signal;HPM_P1;HPM_P2
2021/12/14 00:01:54;;;;;;;6.83;4.90;;;9.20;99.90;;;;;;5032836;28;20561;-78
2021/12/14 00:04:48;;;;;;;5.67;4.77;;;9.10;99.90;;;;;;5025126;28;20369;-78
2021/12/14 00:07:18;;;;;;;5.27;4.47;;;9.20;99.90;;;;;;5029673;28;20199;-78
2021/12/14 00:09:46;;;;;;;4.50;4.10;;;9.10;99.90;;;;;;5031931;28;20215;-77
2021/12/14 00:12:35;;;;;;;5.67;5.07;;;9.10;99.90;;;;;;5022162;28;20560;-77
2021/12/14 00:15:10;;;;;;;4.97;4.43;;;9.10;99.90;;;;;;5026805;28;20555;-77
2021/12/14 00:17:42;;;;;;;4.20;3.80;;;9.10;99.90;;;;;;5031525;28;20206;-78
2021/12/14 00:20:16;;;;;;;6.23;5.13;;;9.10;99.90;;;;;;5028120;28;20226;-77
2021/12/14 00:25:34;;;;;;;5.57;4.50;;;9.00;99.90;;;;;;5019944;28;20191;-77
2021/12/14 00:28:05;;;;;;;5.37;4.87;;;9.00;99.90;;;;;;5020393;28;20199;-77
2021/12/14 00:30:35;;;;;;;5.13;4.63;;;9.00;99.90;;;;;;5045484;28;20227;-77
2021/12/14 00:33:06;;;;;;;5.17;4.67;;;9.10;99.90;;;;;;5047559;28;20187;-77
2021/12/14 00:35:34;;;;;;;5.77;4.70;;;9.00;99.90;;;;;;5032123;28;20206;-78
2021/12/14 00:38:02;;;;;;;4.93;4.43;;;9.00;99.90;;;;;;5032574;28;20584;-77
2021/12/14 00:40:32;;;;;;;5.87;4.70;;;9.00;99.90;;;;;;5031102;28;20223;-77
2021/12/14 00:43:14;;;;;;;5.57;4.43;;;9.00;99.90;;;;;;5047744;28;20196;-78
2021/12/14 00:45:45;;;;;;;5.53;4.70;;;9.00;99.90;;;;;;5030482;28;20199;-77
2021/12/14 00:48:15;;;;;;;5.07;4.57;;;9.00;99.90;;;;;;5029856;28;20199;-78
2021/12/14 00:50:45;;;;;;;5.90;5.03;;;9.00;99.90;;;;;;5021609;28;20235;-77
2021/12/14 00:53:15;;;;;;;8.10;4.67;;;9.00;99.90;;;;;;5045733;28;20231;-77
2021/12/14 00:55:46;;;;;;;5.67;5.07;;;9.00;99.90;;;;;;5041264;28;20199;-78
2021/12/14 00:58:15;;;;;;;4.93;4.20;;;8.90;99.90;;;;;;5030205;28;20211;-78
2021/12/14 01:00:48;;;;;;;5.63;4.40;;;9.00;99.90;;;;;;5023434;28;20231;-77
2021/12/14 01:03:16;;;;;;;5.07;4.43;;;9.00;99.90;;;;;;5022866;28;20549;-78
2021/12/14 01:06:17;;;;;;;5.23;4.63;;;9.00;99.90;;;;;;5024815;28;20688;-80
2021/12/14 01:08:47;;;;;;;8.00;4.70;;;9.00;99.90;;;;;;5025786;28;20203;-78
2021/12/14 01:11:18;;;;;;;5.60;5.10;;;9.00;99.90;;;;;;5030945;28;20226;-77
2021/12/14 01:13:55;;;;;;;5.80;4.50;;;8.90;99.90;;;;;;5018622;28;20218;-77
2021/12/14 01:16:35;;;;;;;5.77;4.80;;;8.90;99.90;;;;;;5046517;28;20213;-77
2021/12/14 01:19:16;;;;;;;4.93;4.43;;;8.90;99.90;;;;;;5019948;28;20202;-78
2021/12/14 01:22:11;;;;;;;5.50;4.90;;;8.90;99.90;;;;;;5022958;28;20222;-78
2021/12/14 01:27:41;;;;;;;5.37;4.87;;;8.90;99.90;;;;;;5003938;28;20223;-78
2021/12/14 01:30:15;;;;;;;6.17;5.20;;;8.90;99.90;;;;;;5047172;28;20262;-78
2021/12/14 01:32:47;;;;;;;5.97;4.77;;;8.90;99.90;;;;;;5029873;28;20572;-77
2021/12/14 01:35:16;;;;;;;5.83;4.83;;;8.90;99.90;;;;;;5045572;28;20665;-77
2021/12/14 01:37:58;;;;;;;5.93;5.03;;;8.90;99.90;;;;;;5026711;28;20210;-77
2021/12/14 01:43:11;;;;;;;6.57;4.80;;;8.90;99.90;;;;;;5036657;28;20195;-77
2021/12/14 01:45:38;;;;;;;5.00;4.50;;;8.90;99.90;;;;;;5018702;28;20199;-77
2021/12/14 01:48:07;;;;;;;5.87;4.50;;;8.90;99.90;;;;;;5045471;28;20206;-77
2021/12/14 01:50:54;;;;;;;4.93;4.37;;;8.90;99.90;;;;;;5027408;28;20230;-78
2021/12/14 01:53:32;;;;;;;4.70;4.17;;;8.90;99.90;;;;;;5030736;28;20226;-77
2021/12/14 01:56:05;;;;;;;5.17;4.60;;;9.00;99.90;;;;;;5044279;28;20203;-78
2021/12/14 01:58:39;;;;;;;6.03;5.10;;;8.90;99.90;;;;;;5028050;28;20207;-78
2021/12/14 02:01:12;;;;;;;6.37;4.97;;;9.00;99.90;;;;;;5043171;28;20226;-78
2021/12/14 02:03:45;;;;;;;6.27;5.53;;;8.90;99.90;;;;;;5024825;28;20207;-78
2021/12/14 02:06:16;;;;;;;5.23;4.73;;;8.90;99.90;;;;;;5024308;28;20199;-77
2021/12/14 02:08:44;;;;;;;5.90;5.23;;;8.90;99.90;;;;;;5029560;28;20210;-77
2021/12/14 02:11:13;;;;;;;6.50;5.00;;;8.90;99.90;;;;;;5021452;28;20210;-77
2021/12/14 02:13:44;;;;;;;5.27;4.77;;;8.90;99.90;;;;;;5027064;28;20195;-77
2021/12/14 02:16:19;;;;;;;6.47;5.83;;;8.90;99.90;;;;;;5027806;28;20197;-77
2021/12/14 02:18:52;;;;;;;6.40;5.37;;;8.80;99.90;;;;;;5028686;28;20199;-77
2021/12/14 02:21:22;;;;;;;6.03;5.43;;;8.80;99.90;;;;;;5039282;28;20212;-77
2021/12/14 02:23:52;;;;;;;6.80;5.47;;;8.80;99.90;;;;;;5022489;28;20195;-77
2021/12/14 02:26:22;;;;;;;6.50;4.80;;;8.80;99.90;;;;;;5042746;28;20210;-77
2021/12/14 02:28:52;;;;;;;6.30;5.70;;;8.80;99.90;;;;;;5027253;28;20208;-77
2021/12/14 02:31:23;;;;;;;5.77;5.17;;;8.80;99.90;;;;;;5029630;28;20226;-78
2021/12/14 02:33:52;;;;;;;7.27;5.80;;;8.80;99.90;;;;;;5025120;28;20194;-77
2021/12/14 02:36:33;;;;;;;6.57;5.23;;;8.80;99.90;;;;;;5049543;28;20656;-78
2021/12/14 02:39:08;;;;;;;6.43;5.37;;;8.70;99.90;;;;;;5033925;28;20203;-77
2021/12/14 02:41:45;;;;;;;6.20;5.60;;;8.80;99.90;;;;;;5050296;28;20215;-77
2021/12/14 02:44:14;;;;;;;6.70;5.67;;;8.70;99.90;;;;;;5044201;28;20206;-78
2021/12/14 02:46:45;;;;;;;6.30;5.37;;;8.80;99.90;;;;;;5047156;28;20207;-77
2021/12/14 02:49:19;;;;;;;6.13;5.20;;;8.80;99.90;;;;;;5030172;28;20214;-78
2021/12/14 02:51:52;;;;;;;6.23;5.63;;;8.80;99.90;;;;;;5032965;28;20221;-78
2021/12/14 02:54:24;;;;;;;6.60;5.50;;;8.80;99.90;;;;;;5049153;28;20199;-78
2021/12/14 02:56:55;;;;;;;7.57;5.57;;;8.80;99.90;;;;;;5042585;28;20202;-78
2021/12/14 02:59:26;;;;;;;8.43;6.13;;;8.80;99.90;;;;;;5033011;28;20202;-78
2021/12/14 03:02:03;;;;;;;8.10;5.80;;;8.80;99.90;;;;;;5045488;28;20199;-77
2021/12/14 03:04:31;;;;;;;7.80;6.00;;;8.70;99.90;;;;;;5035857;28;20224;-77
2021/12/14 03:07:01;;;;;;;9.00;5.77;;;8.70;99.90;;;;;;5048403;28;20199;-77
2021/12/14 03:09:38;;;;;;;7.53;5.97;;;8.60;99.90;;;;;;5048271;28;20199;-77
2021/12/14 03:12:09;;;;;;;7.33;6.17;;;8.60;99.90;;;;;;5046287;28;20221;-77
2021/12/14 03:14:38;;;;;;;8.77;6.33;;;8.60;99.90;;;;;;5047042;28;20203;-77
2021/12/14 03:17:06;;;;;;;7.50;6.80;;;8.60;99.90;;;;;;5026427;28;20210;-77
2021/12/14 03:19:33;;;;;;;8.17;6.23;;;8.60;99.90;;;;;;5028581;28;20205;-77
2021/12/14 03:22:22;;;;;;;6.20;5.60;;;8.60;99.90;;;;;;5029421;28;20306;-78
2021/12/14 03:24:51;;;;;;;7.73;6.47;;;8.60;99.90;;;;;;5022208;28;20202;-77
2021/12/14 03:27:19;;;;;;;8.17;6.10;;;8.60;99.90;;;;;;5029944;28;20270;-78
2021/12/14 03:29:46;;;;;;;9.13;6.23;;;8.60;99.90;;;;;;5049569;28;20219;-77
2021/12/14 03:32:14;;;;;;;8.07;6.47;;;8.50;99.90;;;;;;5029446;28;20226;-77
2021/12/14 03:34:42;;;;;;;8.33;6.50;;;8.50;99.90;;;;;;5049707;28;20207;-77
2021/12/14 03:37:16;;;;;;;10.97;7.03;;;8.60;99.90;;;;;;5025691;28;20210;-78
2021/12/14 03:39:47;;;;;;;9.73;7.20;;;8.50;99.90;;;;;;5030967;28;20230;-77
2021/12/14 03:42:23;;;;;;;8.83;6.97;;;8.40;99.90;;;;;;5026609;28;20195;-77
2021/12/14 03:44:53;;;;;;;9.87;7.57;;;8.50;99.90;;;;;;5025791;28;20194;-77
2021/12/14 03:47:33;;;;;;;9.67;7.27;;;8.40;99.90;;;;;;5030238;28;20209;-77
2021/12/14 03:50:33;;;;;;;8.97;7.10;;;8.50;99.90;;;;;;5047494;28;20222;-77
2021/12/14 03:53:03;;;;;;;8.13;6.70;;;8.50;99.90;;;;;;5034148;28;20204;-77
2021/12/14 03:55:34;;;;;;;10.07;6.77;;;8.50;99.90;;;;;;5028624;28;20196;-77
2021/12/14 03:58:02;;;;;;;8.27;6.80;;;8.50;99.90;;;;;;5047318;28;20199;-78
2021/12/14 04:00:34;;;;;;;8.50;6.73;;;8.50;99.90;;;;;;5033460;28;20571;-77
2021/12/14 04:03:06;;;;;;;8.70;7.07;;;8.50;99.90;;;;;;5037081;28;20191;-77
2021/12/14 04:05:44;;;;;;;10.20;7.30;;;8.50;99.90;;;;;;5031730;28;20236;-77
2021/12/14 04:08:15;;;;;;;9.07;7.60;;;8.40;99.90;;;;;;5024439;28;20213;-77
2021/12/14 04:11:39;;;;;;;9.43;7.23;;;8.40;99.90;;;;;;5047809;28;20214;-77
2021/12/14 04:14:08;;;;;;;8.37;6.63;;;8.50;99.90;;;;;;5027501;28;20219;-77
2021/12/14 04:16:39;;;;;;;9.00;7.40;;;8.50;99.90;;;;;;5027801;28;20206;-77
2021/12/14 04:19:09;;;;;;;9.37;7.77;;;8.60;99.90;;;;;;5020803;28;20202;-78
2021/12/14 04:21:41;;;;;;;10.97;8.30;;;8.50;99.90;;;;;;5048538;28;20590;-77
2021/12/14 04:24:15;;;;;;;12.80;8.47;;;8.40;99.90;;;;;;5032318;28;20194;-77
2021/12/14 04:26:45;;;;;;;10.60;8.70;;;8.30;99.90;;;;;;5030243;28;20187;-78
2021/12/14 04:29:16;;;;;;;12.60;8.50;;;8.30;99.90;;;;;;5043221;28;21224;-78
2021/12/14 04:31:46;;;;;;;12.57;8.70;;;8.30;99.90;;;;;;5021987;28;20223;-78
2021/12/14 04:34:17;;;;;;;13.50;9.37;;;8.40;99.90;;;;;;5025525;28;20219;-77
2021/12/14 04:36:47;;;;;;;13.93;10.33;;;8.30;99.90;;;;;;5022211;28;20203;-77
2021/12/14 04:39:36;;;;;;;13.80;9.73;;;8.30;99.90;;;;;;5043782;28;20211;-78
2021/12/14 04:53:39;;;;;;;17.10;12.00;;;8.00;99.90;;;;;;5003826;28;20215;-77
2021/12/14 04:56:13;;;;;;;17.90;13.00;;;8.00;99.90;;;;;;5026660;28;20194;-77
2021/12/14 04:58:44;;;;;;;17.73;12.37;;;8.10;99.90;;;;;;5030926;28;20214;-77
2021/12/14 05:01:13;;;;;;;20.73;13.87;;;8.00;99.90;;;;;;5046111;28;20231;-78
2021/12/14 05:03:44;;;;;;;19.73;13.53;;;8.00;99.90;;;;;;5044385;28;20198;-78
2021/12/14 05:06:17;;;;;;;19.80;13.97;;;8.00;99.90;;;;;;5029274;28;20214;-77
2021/12/14 05:11:35;;;;;;;23.27;15.47;;;8.10;99.90;;;;;;5029775;28;20708;-77
2021/12/14 05:14:10;;;;;;;23.33;15.20;;;8.00;99.90;;;;;;5036997;28;20214;-79
2021/12/14 05:16:44;;;;;;;22.77;14.70;;;8.00;99.90;;;;;;5046645;28;20558;-77
2021/12/14 05:19:12;;;;;;;22.77;15.57;;;8.00;99.90;;;;;;5043705;28;20199;-78
2021/12/14 05:21:44;;;;;;;26.20;16.73;;;7.90;99.90;;;;;;5040479;28;20218;-78
2021/12/14 05:24:17;;;;;;;26.97;17.40;;;7.90;99.90;;;;;;5022870;28;20562;-78
2021/12/14 05:26:57;;;;;;;26.50;16.97;;;7.90;99.90;;;;;;5029771;28;20194;-77
2021/12/14 05:29:26;;;;;;;33.47;18.57;;;7.90;99.90;;;;;;5046250;28;20611;-79
2021/12/14 05:32:01;;;;;;;26.00;17.27;;;7.90;99.90;;;;;;5025999;28;20210;-78
2021/12/14 05:34:36;;;;;;;28.57;16.97;;;7.90;99.90;;;;;;5026046;28;20206;-77
2021/12/14 05:37:10;;;;;;;32.50;19.20;;;8.00;99.90;;;;;;5036092;28;20203;-78
2021/12/14 05:39:52;;;;;;;33.20;19.87;;;7.90;99.90;;;;;;5042651;28;20693;-78
2021/12/14 05:45:30;;;;;;;30.93;19.67;;;7.90;99.90;;;;;;5042727;28;20203;-78
2021/12/14 05:47:59;;;;;;;33.43;20.57;;;7.90;99.90;;;;;;5044504;28;20199;-78
2021/12/14 05:50:44;;;;;;;31.30;19.10;;;7.90;99.90;;;;;;5031502;28;20226;-77
2021/12/14 05:53:19;;;;;;;31.97;20.33;;;8.00;99.90;;;;;;5025765;28;20222;-77
2021/12/14 05:55:47;;;;;;;31.37;18.47;;;8.00;99.90;;;;;;5044946;28;20202;-78
2021/12/14 05:58:19;;;;;;;30.90;20.37;;;8.10;99.90;;;;;;5022575;28;20195;-78
2021/12/14 06:00:49;;;;;;;32.53;21.27;;;8.10;99.90;;;;;;5036467;28;20233;-77
2021/12/14 06:03:20;;;;;;;32.67;19.60;;;8.10;99.90;;;;;;5026601;28;20195;-78
2021/12/14 06:05:50;;;;;;;28.30;19.10;;;8.20;99.90;;;;;;5039761;28;20206;-77
2021/12/14 06:08:21;;;;;;;25.67;18.00;;;8.20;99.90;;;;;;5035849;28;20199;-78
2021/12/14 06:10:51;;;;;;;28.83;19.03;;;8.20;99.90;;;;;;5040973;28;20215;-78
2021/12/14 06:13:20;;;;;;;28.17;18.23;;;8.10;99.90;;;;;;5026739;28;20563;-77
2021/12/14 06:15:49;;;;;;;27.43;18.30;;;8.10;99.90;;;;;;5045659;28;20198;-78
2021/12/14 06:18:25;;;;;;;30.13;18.97;;;8.10;99.90;;;;;;5038695;28;20198;-78
2021/12/14 06:21:40;;;;;;;30.20;20.77;;;8.00;99.90;;;;;;5023338;28;20234;-78
2021/12/14 06:24:10;;;;;;;31.63;20.47;;;8.00;99.90;;;;;;5025970;28;20208;-77
2021/12/14 06:26:45;;;;;;;32.40;19.73;;;8.00;99.90;;;;;;5030318;28;20210;-78
2021/12/14 06:29:21;;;;;;;31.43;20.47;;;8.00;99.90;;;;;;5040081;28;20221;-78
2021/12/14 06:31:49;;;;;;;31.70;20.80;;;8.00;99.90;;;;;;5029336;28;20214;-78
2021/12/14 06:34:21;;;;;;;32.37;20.47;;;8.10;99.90;;;;;;5033675;28;20231;-78
2021/12/14 06:37:31;;;;;;;31.73;21.27;;;8.20;99.90;;;;;;5025670;28;20206;-77
2021/12/14 06:40:03;;;;;;;31.57;19.77;;;8.20;99.90;;;;;;5039014;28;20215;-78
2021/12/14 06:42:33;;;;;;;31.93;21.10;;;8.10;99.90;;;;;;5041882;28;20203;-77
2021/12/14 06:45:11;;;;;;;35.00;22.27;;;8.20;99.90;;;;;;5038569;28;20570;-77
2021/12/14 06:47:40;;;;;;;35.07;21.10;;;8.10;99.90;;;;;;5019482;28;20191;-78
2021/12/14 06:50:11;;;;;;;34.73;22.97;;;8.20;99.90;;;;;;5041037;28;20588;-77
2021/12/14 06:52:42;;;;;;;34.83;22.37;;;8.10;99.90;;;;;;5028411;28;20195;-77
2021/12/14 06:55:27;;;;;;;34.77;22.37;;;8.10;99.90;;;;;;5027404;28;20227;-78
2021/12/14 06:58:24;;;;;;;34.23;22.77;;;8.00;99.90;;;;;;5015436;28;20214;-77
2021/12/14 07:01:01;;;;;;;36.53;24.23;;;8.00;99.90;;;;;;5043509;28;20223;-78
2021/12/14 07:03:41;;;;;;;36.67;24.33;;;8.10;99.90;;;;;;5029163;28;20203;-77
2021/12/14 07:06:23;;;;;;;38.10;24.10;;;8.00;99.90;;;;;;5015715;28;20196;-78
2021/12/14 07:08:57;;;;;;;37.83;23.17;;;8.00;99.90;;;;;;5023401;28;20679;-78
2021/12/14 07:11:26;;;;;;;41.03;24.57;;;8.10;99.90;;;;;;5045718;28;20219;-77
2021/12/14 07:13:54;;;;;;;44.57;26.53;;;8.00;99.90;;;;;;5024133;28;20685;-77
2021/12/14 07:16:30;;;;;;;44.47;26.97;;;8.00;99.90;;;;;;5041399;28;20199;-77
2021/12/14 07:19:01;;;;;;;43.50;26.70;;;8.00;99.90;;;;;;5029182;28;20199;-77
2021/12/14 07:21:40;;;;;;;44.70;26.67;;;7.90;99.90;;;;;;5034144;28;20221;-77
2021/12/14 07:24:37;;;;;;;45.53;26.23;;;8.00;99.90;;;;;;5030554;28;20209;-77
2021/12/14 07:27:27;;;;;;;46.87;27.03;;;8.00;99.90;;;;;;5034182;28;20207;-77
2021/12/14 07:30:11;;;;;;;47.27;26.73;;;8.00;99.90;;;;;;5036170;28;20576;-77
2021/12/14 07:32:44;;;;;;;40.53;25.67;;;8.10;99.90;;;;;;5029693;28;20661;-76
2021/12/14 07:35:28;;;;;;;42.73;26.20;;;8.20;99.90;;;;;;5031535;28;20219;-76
2021/12/14 07:37:58;;;;;;;40.33;25.47;;;8.20;99.90;;;;;;5033306;28;20202;-77
2021/12/14 07:40:35;;;;;;;36.27;24.80;;;8.20;99.90;;;;;;5035526;28;20623;-76
2021/12/14 07:43:21;;;;;;;37.73;23.67;;;8.10;99.90;;;;;;5039197;28;20202;-76
2021/12/14 07:45:51;;;;;;;38.03;23.63;;;8.10;99.90;;;;;;5025717;28;20617;-76
2021/12/14 07:48:39;;;;;;;39.20;25.53;;;8.10;99.90;;;;;;5045741;28;20195;-76
2021/12/14 07:51:07;;;;;;;37.27;23.83;;;8.20;99.90;;;;;;5025354;28;20226;-76
2021/12/14 07:53:37;;;;;;;40.30;25.30;;;8.10;99.90;;;;;;5028448;28;20199;-76
2021/12/14 07:56:27;;;;;;;40.57;25.13;;;8.10;99.90;;;;;;5047991;28;20206;-76
2021/12/14 07:58:57;;;;;;;39.13;24.57;;;8.10;99.90;;;;;;5032103;28;20199;-76
2021/12/14 08:01:24;;;;;;;42.13;27.07;;;8.10;99.90;;;;;;5022496;28;20231;-77
2021/12/14 08:04:05;;;;;;;42.63;24.90;;;8.10;99.90;;;;;;5021004;28;20207;-76
2021/12/14 08:06:49;;;;;;;39.33;25.07;;;8.10;99.90;;;;;;5027560;28;20220;-76
2021/12/14 08:09:45;;;;;;;40.37;26.53;;;8.20;99.90;;;;;;5029216;28;20210;-76
2021/12/14 08:12:38;;;;;;;39.33;25.60;;;8.10;99.90;;;;;;5030640;28;20206;-76
2021/12/14 08:15:12;;;;;;;42.33;26.13;;;8.10;99.90;;;;;;5023943;28;20218;-76
2021/12/14 08:17:40;;;;;;;41.13;25.33;;;8.10;99.90;;;;;;5023157;28;20191;-77
2021/12/14 08:20:12;;;;;;;37.57;22.37;;;8.10;99.90;;;;;;5041079;28;20234;-75
2021/12/14 08:22:42;;;;;;;41.27;25.30;;;8.10;99.90;;;;;;5028595;28;20198;-75
2021/12/14 08:25:11;;;;;;;38.30;25.43;;;8.20;99.90;;;;;;5019630;28;20200;-75
2021/12/14 08:28:02;;;;;;;41.40;26.60;;;8.20;99.90;;;;;;5028629;28;20214;-76
2021/12/14 08:30:30;;;;;;;44.73;27.67;;;8.10;99.90;;;;;;5025921;28;20219;-76
2021/12/14 08:32:58;;;;;;;42.63;25.60;;;8.10;99.90;;;;;;5029224;28;20584;-76
2021/12/14 08:35:28;;;;;;;39.83;25.03;;;8.20;99.90;;;;;;5037477;28;20242;-76
2021/12/14 08:38:07;;;;;;;38.93;25.23;;;8.10;99.90;;;;;;5039607;28;20584;-76
2021/12/14 08:40:39;;;;;;;40.77;26.67;;;8.10;99.90;;;;;;5029539;28;20219;-76
2021/12/14 08:43:13;;;;;;;42.03;24.87;;;8.10;99.90;;;;;;5044791;28;20210;-77
2021/12/14 08:45:54;;;;;;;42.60;26.77;;;8.20;99.90;;;;;;5045110;28;20199;-76
2021/12/14 08:48:25;;;;;;;42.57;25.57;;;8.20;99.90;;;;;;5042545;28;20202;-76
2021/12/14 08:51:00;;;;;;;40.23;26.10;;;8.10;99.90;;;;;;5026463;28;20223;-75
2021/12/14 08:53:31;;;;;;;43.23;25.47;;;8.10;99.90;;;;;;5038715;28;20653;-75
2021/12/14 08:56:01;;;;;;;37.57;23.57;;;8.20;99.90;;;;;;5028329;28;20214;-74
2021/12/14 08:58:48;;;;;;;40.43;25.23;;;8.10;99.90;;;;;;5041086;28;20209;-75
2021/12/14 09:01:21;;;;;;;41.07;25.50;;;8.20;99.90;;;;;;5048148;28;20227;-77
2021/12/14 09:04:04;;;;;;;40.80;24.13;;;8.20;99.90;;;;;;5043025;28;20232;-75
2021/12/14 09:06:36;;;;;;;36.80;24.27;;;8.20;99.90;;;;;;5046807;28;20194;-74
2021/12/14 09:09:09;;;;;;;37.17;24.07;;;8.20;99.90;;;;;;5047551;28;20211;-75
2021/12/14 09:11:40;;;;;;;40.00;24.03;;;8.30;99.90;;;;;;5044925;28;20226;-74
2021/12/14 09:14:19;;;;;;;33.73;23.73;;;8.30;99.90;;;;;;5026027;28;20564;-74
2021/12/14 09:16:49;;;;;;;33.10;21.57;;;8.30;99.90;;;;;;5048191;28;20198;-74
2021/12/14 09:19:20;;;;;;;34.30;22.90;;;8.40;99.90;;;;;;5049338;28;20218;-74
2021/12/14 09:21:53;;;;;;;33.03;22.30;;;8.40;99.90;;;;;;5044953;28;20225;-74
2021/12/14 09:24:23;;;;;;;37.47;23.43;;;8.30;99.90;;;;;;5047923;28;20579;-74
2021/12/14 09:26:53;;;;;;;36.83;24.90;;;8.30;99.90;;;;;;5032061;28;20202;-74
2021/12/14 09:29:25;;;;;;;34.73;21.57;;;8.40;99.90;;;;;;5027489;28;20199;-74
2021/12/14 09:31:57;;;;;;;35.93;23.23;;;8.30;99.90;;;;;;5047403;28;20218;-74
2021/12/14 09:34:27;;;;;;;37.77;25.97;;;8.30;99.90;;;;;;5032379;28;20194;-74
2021/12/14 09:36:57;;;;;;;39.97;23.60;;;8.30;99.90;;;;;;5045737;28;20230;-74
2021/12/14 09:39:29;;;;;;;37.70;23.23;;;8.30;99.90;;;;;;5031700;28;20206;-74
2021/12/14 09:41:59;;;;;;;34.10;23.37;;;8.30;99.90;;;;;;5038771;28;20576;-74
2021/12/14 09:44:29;;;;;;;37.93;23.87;;;8.30;99.90;;;;;;5032809;28;20192;-74
2021/12/14 09:47:05;;;;;;;38.10;22.77;;;8.30;99.90;;;;;;5036328;28;20203;-74
2021/12/14 09:49:32;;;;;;;37.23;22.97;;;8.40;99.90;;;;;;5047188;28;20202;-74
2021/12/14 09:52:08;;;;;;;35.70;24.03;;;8.40;99.90;;;;;;5041948;28;20195;-74
2021/12/14 09:54:37;;;;;;;36.40;22.87;;;8.40;99.90;;;;;;5047623;28;20210;-74
2021/12/14 09:57:16;;;;;;;33.60;21.97;;;8.50;99.90;;;;;;5040687;28;20242;-74
2021/12/14 09:59:45;;;;;;;33.90;21.70;;;8.50;99.90;;;;;;5047790;28;20210;-74
2021/12/14 10:02:16;;;;;;;34.97;22.33;;;8.50;99.90;;;;;;5034031;28;20198;-74
2021/12/14 10:04:47;;;;;;;37.77;23.60;;;8.40;99.90;;;;;;5033704;28;20214;-74
2021/12/14 10:07:16;;;;;;;36.20;23.43;;;8.40;99.90;;;;;;5033984;28;20207;-74
2021/12/14 10:09:48;;;;;;;34.47;23.17;;;8.50;99.90;;;;;;5047880;28;20210;-74
2021/12/14 10:12:49;;;;;;;36.87;23.63;;;8.60;99.90;;;;;;5047324;28;20207;-74
2021/12/14 10:15:24;;;;;;;37.13;23.53;;;8.50;99.90;;;;;;5026842;28;20214;-74
2021/12/14 10:17:54;;;;;;;36.60;23.37;;;8.50;99.90;;;;;;5018608;28;20209;-74
2021/12/14 10:20:27;;;;;;;38.47;24.40;;;8.50;99.90;;;;;;5031508;28;20226;-74
2021/12/14 10:22:56;;;;;;;36.43;24.27;;;8.60;99.90;;;;;;5027256;28;20212;-74
2021/12/14 10:25:27;;;;;;;39.07;24.43;;;8.60;99.90;;;;;;5027899;28;20194;-74
2021/12/14 10:27:55;;;;;;;40.00;23.93;;;8.60;99.90;;;;;;5031365;28;20202;-74
2021/12/14 10:30:29;;;;;;;39.63;25.33;;;8.60;99.90;;;;;;5031975;28;20226;-74
2021/12/14 10:33:00;;;;;;;37.63;25.33;;;8.60;99.90;;;;;;5047440;28;20203;-74
2021/12/14 10:35:34;;;;;;;45.57;27.13;;;8.50;99.90;;;;;;5045763;28;20219;-74
2021/12/14 10:38:20;;;;;;;42.97;27.40;;;8.60;99.90;;;;;;5026993;28;20205;-74
2021/12/14 10:43:37;;;;;;;43.73;26.70;;;8.50;99.90;;;;;;5024706;28;20191;-75
2021/12/14 10:46:10;;;;;;;42.20;25.70;;;8.60;99.90;;;;;;5038331;28;20195;-74
2021/12/14 10:48:39;;;;;;;41.73;25.80;;;8.70;99.90;;;;;;5021802;28;20211;-74
2021/12/14 10:51:11;;;;;;;39.37;25.50;;;8.70;99.90;;;;;;5044232;28;20240;-74
2021/12/14 10:53:43;;;;;;;39.80;27.23;;;8.60;99.90;;;;;;5043681;28;20209;-75
2021/12/14 10:56:13;;;;;;;40.00;25.63;;;8.60;99.90;;;;;;5048341;28;20211;-73
2021/12/14 10:58:42;;;;;;;39.47;24.77;;;8.60;99.90;;;;;;5025030;28;20196;-74
2021/12/14 11:01:13;;;;;;;44.50;27.73;;;8.60;99.90;;;;;;5041813;28;20408;-74
2021/12/14 11:03:45;;;;;;;40.93;25.37;;;8.60;99.90;;;;;;5030204;28;20203;-75
2021/12/14 11:06:15;;;;;;;41.43;25.90;;;8.60;99.90;;;;;;5047838;28;20206;-75
2021/12/14 11:08:57;;;;;;;41.80;25.17;;;8.60;99.90;;;;;;5026722;28;20224;-75
2021/12/14 11:11:32;;;;;;;39.77;24.53;;;8.70;99.90;;;;;;5045393;28;20211;-74
2021/12/14 11:14:07;;;;;;;44.77;27.90;;;8.70;99.90;;;;;;5027244;28;20538;-75
2021/12/14 11:19:20;;;;;;;43.07;27.33;;;8.70;99.90;;;;;;5038687;28;20662;-75
2021/12/14 11:21:47;;;;;;;41.20;25.73;;;8.60;99.90;;;;;;5027876;28;20223;-75
2021/12/14 11:24:16;;;;;;;39.23;25.33;;;8.60;99.90;;;;;;5025450;28;20207;-75
2021/12/14 11:26:44;;;;;;;38.10;24.37;;;8.70;99.90;;;;;;5024091;28;20187;-76
2021/12/14 11:29:15;;;;;;;40.97;26.30;;;8.70;99.90;;;;;;5043496;28;20574;-75
2021/12/14 11:31:46;;;;;;;39.97;25.20;;;8.60;99.90;;;;;;5043643;28;20238;-75
2021/12/14 11:34:31;;;;;;;44.60;27.63;;;8.70;99.90;;;;;;5041470;28;20283;-75
2021/12/14 11:37:03;;;;;;;35.80;23.60;;;8.70;99.90;;;;;;5043343;28;20223;-76
2021/12/14 11:39:38;;;;;;;39.43;25.47;;;8.80;99.90;;;;;;5028712;28;20623;-75
2021/12/14 11:42:10;;;;;;;40.07;25.43;;;8.70;99.90;;;;;;5047989;28;20203;-76
2021/12/14 11:44:40;;;;;;;36.63;24.93;;;8.70;99.90;;;;;;5029420;28;20206;-76
2021/12/14 11:47:23;;;;;;;39.87;25.00;;;8.80;99.90;;;;;;5026166;28;20210;-76
2021/12/14 11:49:54;;;;;;;36.77;24.40;;;8.70;99.90;;;;;;5027103;28;20692;-75
2021/12/14 11:52:42;;;;;;;37.50;23.47;;;8.70;99.90;;;;;;5042898;28;20210;-75
2021/12/14 11:55:26;;;;;;;40.17;26.00;;;8.60;99.90;;;;;;5025413;28;20550;-76
2021/12/14 11:58:13;;;;;;;38.97;25.50;;;8.70;99.90;;;;;;5021994;28;20208;-76
2021/12/14 12:00:44;;;;;;;38.60;25.87;;;8.70;99.90;;;;;;5027214;28;20597;-76
2021/12/14 12:03:41;;;;;;;39.80;25.70;;;8.70;99.90;;;;;;5026774;28;20206;-76
2021/12/14 12:06:25;;;;;;;39.63;25.70;;;8.70;99.90;;;;;;5028213;28;20202;-76
2021/12/14 12:11:46;;;;;;;36.93;23.33;;;8.90;99.90;;;;;;5026399;28;20215;-76
2021/12/14 12:14:31;;;;;;;41.97;25.27;;;8.80;99.90;;;;;;5027642;28;20214;-76
2021/12/14 12:17:20;;;;;;;41.00;25.03;;;8.70;99.90;;;;;;5019607;28;20212;-76
2021/12/14 12:20:26;;;;;;;37.70;24.37;;;8.60;99.90;;;;;;5021986;28;20199;-76
2021/12/14 12:22:56;;;;;;;39.10;23.87;;;8.70;99.90;;;;;;5016848;28;20199;-76
2021/12/14 12:25:29;;;;;;;38.97;24.80;;;8.70;99.90;;;;;;5042252;28;20668;-77
2021/12/14 12:27:59;;;;;;;40.47;24.10;;;8.70;99.90;;;;;;5024064;28;20202;-75
2021/12/14 12:30:39;;;;;;;37.33;24.47;;;8.70;99.90;;;;;;5029995;28;20223;-74
2021/12/14 12:33:25;;;;;;;38.93;24.63;;;8.80;99.90;;;;;;5027967;28;20203;-74
2021/12/14 12:35:57;;;;;;;36.70;24.03;;;8.90;99.90;;;;;;5041036;28;20206;-74
2021/12/14 12:38:48;;;;;;;35.47;22.23;;;8.90;99.90;;;;;;5022941;28;20206;-74
2021/12/14 12:41:25;;;;;;;40.20;25.17;;;8.90;99.90;;;;;;5037391;28;20228;-74
2021/12/14 12:43:58;;;;;;;34.70;22.73;;;8.90;99.90;;;;;;5041788;28;20547;-74
2021/12/14 12:46:28;;;;;;;35.23;23.00;;;8.90;99.90;;;;;;5042830;28;20199;-74
2021/12/14 12:49:16;;;;;;;34.53;23.77;;;9.00;99.90;;;;;;5030837;28;20195;-74
2021/12/14 12:52:10;;;;;;;37.17;23.87;;;8.90;99.90;;;;;;5018647;28;20233;-74
2021/12/14 12:54:57;;;;;;;36.63;24.47;;;8.90;99.90;;;;;;5030648;28;20191;-74
2021/12/14 12:57:47;;;;;;;37.53;25.23;;;9.00;99.90;;;;;;5048398;28;20215;-74
2021/12/14 13:00:25;;;;;;;38.53;25.10;;;9.00;99.90;;;;;;5025938;28;20235;-74
2021/12/14 13:03:01;;;;;;;42.47;27.47;;;9.00;99.90;;;;;;5037148;28;20200;-74
2021/12/14 13:05:34;;;;;;;39.80;26.67;;;8.90;99.90;;;;;;5042309;28;20278;-74
2021/12/14 13:08:14;;;;;;;38.90;25.60;;;8.90;99.90;;;;;;5022710;28;20192;-74
2021/12/14 13:10:54;;;;;;;45.43;28.00;;;8.90;99.90;;;;;;5027651;28;20223;-74
2021/12/14 13:13:24;;;;;;;46.00;28.03;;;8.90;99.90;;;;;;5026880;28;20203;-74
2021/12/14 13:16:02;;;;;;;40.27;26.17;;;8.90;99.90;;;;;;5047419;28;20206;-74
2021/12/14 13:18:41;;;;;;;45.37;28.57;;;9.00;99.90;;;;;;5028747;28;20203;-75
2021/12/14 13:21:13;;;;;;;40.17;26.77;;;9.10;99.90;;;;;;5025060;28;20677;-75
2021/12/14 13:23:54;;;;;;;42.20;27.23;;;9.20;99.90;;;;;;5028891;28;20199;-75
2021/12/14 13:26:29;;;;;;;44.50;27.17;;;9.20;99.90;;;;;;5021676;28;20571;-75
2021/12/14 13:29:00;;;;;;;41.07;27.00;;;9.20;99.90;;;;;;5025795;28;20190;-75
2021/12/14 13:31:34;;;;;;;39.50;27.13;;;9.30;99.90;;;;;;5028595;28;20215;-75
2021/12/14 13:34:05;;;;;;;46.07;26.93;;;9.30;99.90;;;;;;5041554;28;20214;-75
2021/12/14 13:36:32;;;;;;;42.43;27.43;;;9.20;99.90;;;;;;5025820;28;20202;-75
2021/12/14 13:39:00;;;;;;;43.53;28.83;;;9.30;99.90;;;;;;5043602;28;20199;-75
2021/12/14 13:41:41;;;;;;;43.63;28.37;;;9.30;99.90;;;;;;5031147;28;20218;-75
2021/12/14 13:44:09;;;;;;;41.33;28.50;;;9.20;99.90;;;;;;5030028;28;20199;-75
2021/12/14 13:46:37;;;;;;;43.33;26.07;;;9.10;99.90;;;;;;5024399;28;20198;-74
2021/12/14 13:49:05;;;;;;;36.00;25.20;;;9.10;99.90;;;;;;5046567;28;20565;-74
2021/12/14 13:51:32;;;;;;;40.93;27.90;;;9.10;99.90;;;;;;5041883;28;20234;-74
2021/12/14 13:53:59;;;;;;;39.00;27.03;;;9.10;99.90;;;;;;5016868;28;20203;-74
2021/12/14 13:56:30;;;;;;;40.23;27.33;;;9.20;99.90;;;;;;5034049;28;20203;-74